Terminal Aerodrome Forecast
Issued by NWS Mt. Holly, NJ

Home | Current Version | Previous Version | Text Only | Print | Product List | Glossary On
Versions: 1 2 3 4 5 6 7 8 9 10 11 12 13 14
000
FTUS41 KPHI 260540
TAFILG
TAF
KILG 260540Z 2606/2706 21006KT P6SM SKC
     FM261600 20011G19KT P6SM FEW050 SCT200
     FM270000 19008KT P6SM BKN150=

USA.gov is the U.S. government's official web portal to all federal, state and local government web resources and services.